sensor_id;sensor_type;location;lat;lon;timestamp;temperature;humidity
36586;DHT22;22591;48.314;11.562;2022-07-17T00:00:42;15.10;80.60
36586;DHT22;22591;48.314;11.562;2022-07-17T00:03:15;15.00;80.90
36586;DHT22;22591;48.314;11.562;2022-07-17T00:05:41;14.90;81.60
36586;DHT22;22591;48.314;11.562;2022-07-17T00:08:08;14.70;82.20
36586;DHT22;22591;48.314;11.562;2022-07-17T00:10:36;14.60;82.50
36586;DHT22;22591;48.314;11.562;2022-07-17T00:13:02;14.60;83.90
36586;DHT22;22591;48.314;11.562;2022-07-17T00:15:28;14.60;84.00
36586;DHT22;22591;48.314;11.562;2022-07-17T00:17:54;14.60;84.00
36586;DHT22;22591;48.314;11.562;2022-07-17T00:20:19;14.60;83.60
36586;DHT22;22591;48.314;11.562;2022-07-17T00:22:45;14.50;84.60
36586;DHT22;22591;48.314;11.562;2022-07-17T00:25:12;14.50;84.50
36586;DHT22;22591;48.314;11.562;2022-07-17T00:27:38;14.60;85.50
36586;DHT22;22591;48.314;11.562;2022-07-17T00:30:05;14.60;84.70
36586;DHT22;22591;48.314;11.562;2022-07-17T00:32:31;14.60;84.80
36586;DHT22;22591;48.314;11.562;2022-07-17T00:34:57;14.60;84.70
36586;DHT22;22591;48.314;11.562;2022-07-17T00:37:23;14.40;85.00
36586;DHT22;22591;48.314;11.562;2022-07-17T00:39:48;14.30;85.90
36586;DHT22;22591;48.314;11.562;2022-07-17T00:42:15;14.30;86.70
36586;DHT22;22591;48.314;11.562;2022-07-17T00:44:42;14.20;86.20
36586;DHT22;22591;48.314;11.562;2022-07-17T00:47:16;14.10;87.00
36586;DHT22;22591;48.314;11.562;2022-07-17T00:49:42;14.00;87.90
36586;DHT22;22591;48.314;11.562;2022-07-17T00:52:09;14.10;88.30
36586;DHT22;22591;48.314;11.562;2022-07-17T00:54:37;14.10;88.60
36586;DHT22;22591;48.314;11.562;2022-07-17T00:57:06;14.10;88.30
36586;DHT22;22591;48.314;11.562;2022-07-17T00:59:33;14.00;88.40
36586;DHT22;22591;48.314;11.562;2022-07-17T01:02:00;13.90;88.70
36586;DHT22;22591;48.314;11.562;2022-07-17T01:04:27;13.90;89.90
36586;DHT22;22591;48.314;11.562;2022-07-17T01:06:53;14.00;90.30
36586;DHT22;22591;48.314;11.562;2022-07-17T01:09:19;14.00;90.60
36586;DHT22;22591;48.314;11.562;2022-07-17T01:11:45;14.00;90.80
36586;DHT22;22591;48.314;11.562;2022-07-17T01:14:11;14.10;90.60
36586;DHT22;22591;48.314;11.562;2022-07-17T01:16:36;14.10;90.60
36586;DHT22;22591;48.314;11.562;2022-07-17T01:19:02;14.10;90.80
36586;DHT22;22591;48.314;11.562;2022-07-17T01:21:41;14.10;90.50
36586;DHT22;22591;48.314;11.562;2022-07-17T01:24:07;13.90;90.40
36586;DHT22;22591;48.314;11.562;2022-07-17T01:26:32;13.70;90.30
36586;DHT22;22591;48.314;11.562;2022-07-17T01:28:58;13.60;90.50
36586;DHT22;22591;48.314;11.562;2022-07-17T01:31:23;13.50;90.70
36586;DHT22;22591;48.314;11.562;2022-07-17T01:33:49;13.40;90.90
36586;DHT22;22591;48.314;11.562;2022-07-17T01:36:15;13.20;90.90
36586;DHT22;22591;48.314;11.562;2022-07-17T01:38:41;13.10;91.20
36586;DHT22;22591;48.314;11.562;2022-07-17T01:41:06;13.10;91.80
36586;DHT22;22591;48.314;11.562;2022-07-17T01:43:32;13.10;92.40
36586;DHT22;22591;48.314;11.562;2022-07-17T01:45:57;13.30;93.00
36586;DHT22;22591;48.314;11.562;2022-07-17T01:48:27;13.40;93.20
36586;DHT22;22591;48.314;11.562;2022-07-17T01:50:55;13.50;93.10
36586;DHT22;22591;48.314;11.562;2022-07-17T01:53:20;13.50;92.80
36586;DHT22;22591;48.314;11.562;2022-07-17T01:55:47;13.50;92.50
36586;DHT22;22591;48.314;11.562;2022-07-17T01:58:13;13.40;92.20
36586;DHT22;22591;48.314;11.562;2022-07-17T02:00:40;13.30;92.10
36586;DHT22;22591;48.314;11.562;2022-07-17T02:03:05;13.20;91.70
36586;DHT22;22591;48.314;11.562;2022-07-17T02:05:31;13.10;91.80
36586;DHT22;22591;48.314;11.562;2022-07-17T02:07:57;13.00;92.10
36586;DHT22;22591;48.314;11.562;2022-07-17T02:10:23;12.90;92.60
36586;DHT22;22591;48.314;11.562;2022-07-17T02:12:48;13.00;92.50
36586;DHT22;22591;48.314;11.562;2022-07-17T02:15:14;13.00;92.60
36586;DHT22;22591;48.314;11.562;2022-07-17T02:17:40;13.00;92.80
36586;DHT22;22591;48.314;11.562;2022-07-17T02:20:06;13.10;93.30
36586;DHT22;22591;48.314;11.562;2022-07-17T02:22:33;13.10;93.70
36586;DHT22;22591;48.314;11.562;2022-07-17T02:24:58;13.20;93.30
36586;DHT22;22591;48.314;11.562;2022-07-17T02:27:24;13.20;92.60
36586;DHT22;22591;48.314;11.562;2022-07-17T02:29:49;13.20;92.30
36586;DHT22;22591;48.314;11.562;2022-07-17T02:32:15;13.20;92.20
36586;DHT22;22591;48.314;11.562;2022-07-17T02:34:41;13.10;92.10
36586;DHT22;22591;48.314;11.562;2022-07-17T02:37:06;13.20;92.00
36586;DHT22;22591;48.314;11.562;2022-07-17T02:39:32;13.20;91.80
36586;DHT22;22591;48.314;11.562;2022-07-17T02:41:57;13.10;91.70
36586;DHT22;22591;48.314;11.562;2022-07-17T02:44:23;13.00;91.90
36586;DHT22;22591;48.314;11.562;2022-07-17T02:46:49;12.90;92.30
36586;DHT22;22591;48.314;11.562;2022-07-17T02:49:14;12.90;92.40
36586;DHT22;22591;48.314;11.562;2022-07-17T02:51:40;12.70;92.50
36586;DHT22;22591;48.314;11.562;2022-07-17T02:54:06;12.60;92.80
36586;DHT22;22591;48.314;11.562;2022-07-17T02:56:31;12.60;93.50
36586;DHT22;22591;48.314;11.562;2022-07-17T02:58:57;12.60;93.50
36586;DHT22;22591;48.314;11.562;2022-07-17T03:01:23;12.70;93.50
36586;DHT22;22591;48.314;11.562;2022-07-17T03:03:48;12.70;93.50
36586;DHT22;22591;48.314;11.562;2022-07-17T03:06:14;12.80;93.50
36586;DHT22;22591;48.314;11.562;2022-07-17T03:08:40;12.70;93.50
36586;DHT22;22591;48.314;11.562;2022-07-17T03:11:05;12.60;93.60
36586;DHT22;22591;48.314;11.562;2022-07-17T03:13:31;12.50;94.00
36586;DHT22;22591;48.314;11.562;2022-07-17T03:15:56;12.40;94.20
36586;DHT22;22591;48.314;11.562;2022-07-17T03:18:22;12.40;94.50
36586;DHT22;22591;48.314;11.562;2022-07-17T03:20:48;12.40;94.70
36586;DHT22;22591;48.314;11.562;2022-07-17T03:23:13;12.40;94.80
36586;DHT22;22591;48.314;11.562;2022-07-17T03:25:39;12.50;94.80
36586;DHT22;22591;48.314;11.562;2022-07-17T03:28:04;12.40;94.80
36586;DHT22;22591;48.314;11.562;2022-07-17T03:30:30;12.40;94.90
36586;DHT22;22591;48.314;11.562;2022-07-17T03:32:55;12.40;95.30
36586;DHT22;22591;48.314;11.562;2022-07-17T03:35:21;12.40;95.50
36586;DHT22;22591;48.314;11.562;2022-07-17T03:37:47;12.50;95.60
36586;DHT22;22591;48.314;11.562;2022-07-17T03:40:13;12.50;95.50
36586;DHT22;22591;48.314;11.562;2022-07-17T03:42:39;12.50;95.60
36586;DHT22;22591;48.314;11.562;2022-07-17T03:45:05;12.50;95.40
36586;DHT22;22591;48.314;11.562;2022-07-17T03:47:30;12.50;95.30
36586;DHT22;22591;48.314;11.562;2022-07-17T03:49:56;12.40;95.50
36586;DHT22;22591;48.314;11.562;2022-07-17T03:52:22;12.40;95.70
36586;DHT22;22591;48.314;11.562;2022-07-17T03:54:47;12.40;95.80
36586;DHT22;22591;48.314;11.562;2022-07-17T03:57:13;12.30;95.80
36586;DHT22;22591;48.314;11.562;2022-07-17T03:59:38;12.30;96.20
36586;DHT22;22591;48.314;11.562;2022-07-17T04:02:04;12.30;96.30
36586;DHT22;22591;48.314;11.562;2022-07-17T04:04:29;12.30;96.60
36586;DHT22;22591;48.314;11.562;2022-07-17T04:06:55;12.20;96.70
36586;DHT22;22591;48.314;11.562;2022-07-17T04:09:21;12.20;96.90
36586;DHT22;22591;48.314;11.562;2022-07-17T04:11:46;12.30;97.20
36586;DHT22;22591;48.314;11.562;2022-07-17T04:14:12;12.30;97.10
36586;DHT22;22591;48.314;11.562;2022-07-17T04:16:38;12.40;97.00
36586;DHT22;22591;48.314;11.562;2022-07-17T04:19:03;12.50;97.00
36586;DHT22;22591;48.314;11.562;2022-07-17T04:21:29;12.50;97.00
36586;DHT22;22591;48.314;11.562;2022-07-17T04:23:54;12.70;97.50
36586;DHT22;22591;48.314;11.562;2022-07-17T04:26:20;13.60;97.80
36586;DHT22;22591;48.314;11.562;2022-07-17T04:28:46;14.20;95.60
36586;DHT22;22591;48.314;11.562;2022-07-17T04:31:11;14.20;94.20
36586;DHT22;22591;48.314;11.562;2022-07-17T04:33:37;14.10;93.90
36586;DHT22;22591;48.314;11.562;2022-07-17T04:36:03;14.00;94.00
36586;DHT22;22591;48.314;11.562;2022-07-17T04:38:29;14.00;93.90
36586;DHT22;22591;48.314;11.562;2022-07-17T04:40:54;14.10;93.90
36586;DHT22;22591;48.314;11.562;2022-07-17T04:43:20;14.10;93.80
36586;DHT22;22591;48.314;11.562;2022-07-17T04:45:45;14.20;93.60
36586;DHT22;22591;48.314;11.562;2022-07-17T04:48:11;14.40;93.40
36586;DHT22;22591;48.314;11.562;2022-07-17T04:50:37;14.50;93.20
36586;DHT22;22591;48.314;11.562;2022-07-17T04:53:02;14.50;92.90
36586;DHT22;22591;48.314;11.562;2022-07-17T04:55:28;14.60;92.80
36586;DHT22;22591;48.314;11.562;2022-07-17T04:57:53;14.70;92.70
36586;DHT22;22591;48.314;11.562;2022-07-17T05:00:19;14.90;92.70
36586;DHT22;22591;48.314;11.562;2022-07-17T05:02:45;15.00;92.80
36586;DHT22;22591;48.314;11.562;2022-07-17T05:05:11;15.10;92.80
36586;DHT22;22591;48.314;11.562;2022-07-17T05:07:36;15.30;92.80
36586;DHT22;22591;48.314;11.562;2022-07-17T05:10:04;15.40;92.70
36586;DHT22;22591;48.314;11.562;2022-07-17T05:12:29;15.60;92.60
36586;DHT22;22591;48.314;11.562;2022-07-17T05:14:55;15.70;92.40
36586;DHT22;22591;48.314;11.562;2022-07-17T05:17:21;15.80;92.30
36586;DHT22;22591;48.314;11.562;2022-07-17T05:19:46;16.00;92.20
36586;DHT22;22591;48.314;11.562;2022-07-17T05:22:12;16.10;91.60
36586;DHT22;22591;48.314;11.562;2022-07-17T05:24:38;16.20;91.40
36586;DHT22;22591;48.314;11.562;2022-07-17T05:27:03;16.30;91.00
36586;DHT22;22591;48.314;11.562;2022-07-17T05:29:29;16.50;90.70
36586;DHT22;22591;48.314;11.562;2022-07-17T05:31:55;16.60;90.30
36586;DHT22;22591;48.314;11.562;2022-07-17T05:34:20;16.70;90.20
36586;DHT22;22591;48.314;11.562;2022-07-17T05:36:46;16.80;89.80
36586;DHT22;22591;48.314;11.562;2022-07-17T05:39:12;16.80;89.20
36586;DHT22;22591;48.314;11.562;2022-07-17T05:41:38;16.90;89.00
36586;DHT22;22591;48.314;11.562;2022-07-17T05:44:03;17.00;87.70
36586;DHT22;22591;48.314;11.562;2022-07-17T05:46:30;17.10;86.10
36586;DHT22;22591;48.314;11.562;2022-07-17T05:48:55;17.20;85.00
36586;DHT22;22591;48.314;11.562;2022-07-17T05:51:21;17.20;84.40
36586;DHT22;22591;48.314;11.562;2022-07-17T05:53:46;17.30;84.30
36586;DHT22;22591;48.314;11.562;2022-07-17T05:56:12;17.40;83.90
36586;DHT22;22591;48.314;11.562;2022-07-17T05:58:37;17.60;83.70
36586;DHT22;22591;48.314;11.562;2022-07-17T06:01:04;17.60;83.50
36586;DHT22;22591;48.314;11.562;2022-07-17T06:03:29;17.80;83.20
36586;DHT22;22591;48.314;11.562;2022-07-17T06:05:55;17.90;82.90
36586;DHT22;22591;48.314;11.562;2022-07-17T06:08:21;18.00;82.50
36586;DHT22;22591;48.314;11.562;2022-07-17T06:10:47;18.20;82.40
36586;DHT22;22591;48.314;11.562;2022-07-17T06:13:13;18.30;82.00
36586;DHT22;22591;48.314;11.562;2022-07-17T06:15:38;18.60;82.00
36586;DHT22;22591;48.314;11.562;2022-07-17T06:18:04;18.80;81.10
36586;DHT22;22591;48.314;11.562;2022-07-17T06:20:30;19.40;80.00
36586;DHT22;22591;48.314;11.562;2022-07-17T06:22:56;20.50;78.50
36586;DHT22;22591;48.314;11.562;2022-07-17T06:25:23;22.00;76.10
36586;DHT22;22591;48.314;11.562;2022-07-17T06:27:48;23.70;72.30
36586;DHT22;22591;48.314;11.562;2022-07-17T06:30:15;25.50;68.00
36586;DHT22;22591;48.314;11.562;2022-07-17T06:32:41;26.90;61.80
36586;DHT22;22591;48.314;11.562;2022-07-17T06:35:07;28.00;59.50
36586;DHT22;22591;48.314;11.562;2022-07-17T06:37:34;29.30;57.10
36586;DHT22;22591;48.314;11.562;2022-07-17T06:39:59;30.00;53.80
36586;DHT22;22591;48.314;11.562;2022-07-17T06:42:25;30.50;50.80
36586;DHT22;22591;48.314;11.562;2022-07-17T06:44:51;31.00;50.70
36586;DHT22;22591;48.314;11.562;2022-07-17T06:47:16;31.60;49.10
36586;DHT22;22591;48.314;11.562;2022-07-17T06:49:42;31.80;47.20
36586;DHT22;22591;48.314;11.562;2022-07-17T06:52:08;31.00;46.80
36586;DHT22;22591;48.314;11.562;2022-07-17T06:54:34;29.30;47.60
36586;DHT22;22591;48.314;11.562;2022-07-17T06:57:00;27.60;49.80
36586;DHT22;22591;48.314;11.562;2022-07-17T06:59:25;26.20;51.90
36586;DHT22;22591;48.314;11.562;2022-07-17T07:01:51;25.10;53.90
36586;DHT22;22591;48.314;11.562;2022-07-17T07:04:16;24.10;56.00
36586;DHT22;22591;48.314;11.562;2022-07-17T07:06:42;23.50;57.90
36586;DHT22;22591;48.314;11.562;2022-07-17T07:09:08;23.00;58.70
36586;DHT22;22591;48.314;11.562;2022-07-17T07:11:36;22.60;59.60
36586;DHT22;22591;48.314;11.562;2022-07-17T07:14:03;22.40;60.40
36586;DHT22;22591;48.314;11.562;2022-07-17T07:16:28;22.10;60.90
36586;DHT22;22591;48.314;11.562;2022-07-17T07:18:54;21.90;61.30
36586;DHT22;22591;48.314;11.562;2022-07-17T07:21:19;21.80;61.90
36586;DHT22;22591;48.314;11.562;2022-07-17T07:23:45;21.70;62.70
36586;DHT22;22591;48.314;11.562;2022-07-17T07:26:11;21.60;62.80
36586;DHT22;22591;48.314;11.562;2022-07-17T07:28:37;21.60;63.10
36586;DHT22;22591;48.314;11.562;2022-07-17T07:31:03;21.50;63.40
36586;DHT22;22591;48.314;11.562;2022-07-17T07:33:29;21.60;64.00
36586;DHT22;22591;48.314;11.562;2022-07-17T07:35:55;21.60;63.10
36586;DHT22;22591;48.314;11.562;2022-07-17T07:38:21;21.40;63.40
36586;DHT22;22591;48.314;11.562;2022-07-17T07:40:46;21.50;63.80
36586;DHT22;22591;48.314;11.562;2022-07-17T07:43:12;21.50;63.30
36586;DHT22;22591;48.314;11.562;2022-07-17T07:45:37;21.60;63.20
36586;DHT22;22591;48.314;11.562;2022-07-17T07:48:03;21.60;63.00
36586;DHT22;22591;48.314;11.562;2022-07-17T07:50:29;21.60;63.40
36586;DHT22;22591;48.314;11.562;2022-07-17T07:52:55;21.70;63.10
36586;DHT22;22591;48.314;11.562;2022-07-17T07:55:21;21.80;63.00
36586;DHT22;22591;48.314;11.562;2022-07-17T07:57:47;21.80;62.60
36586;DHT22;22591;48.314;11.562;2022-07-17T08:00:14;21.80;62.70
36586;DHT22;22591;48.314;11.562;2022-07-17T08:02:40;21.90;61.90
36586;DHT22;22591;48.314;11.562;2022-07-17T08:05:06;22.00;62.00
36586;DHT22;22591;48.314;11.562;2022-07-17T08:07:34;22.00;62.50
36586;DHT22;22591;48.314;11.562;2022-07-17T08:10:00;22.20;61.40
36586;DHT22;22591;48.314;11.562;2022-07-17T08:12:26;22.20;61.50
36586;DHT22;22591;48.314;11.562;2022-07-17T08:14:51;22.20;61.60
36586;DHT22;22591;48.314;11.562;2022-07-17T08:17:17;22.20;61.40
36586;DHT22;22591;48.314;11.562;2022-07-17T08:19:44;22.30;61.30
36586;DHT22;22591;48.314;11.562;2022-07-17T08:22:10;22.40;61.10
36586;DHT22;22591;48.314;11.562;2022-07-17T08:24:37;22.50;60.50
36586;DHT22;22591;48.314;11.562;2022-07-17T08:27:06;22.60;60.10
36586;DHT22;22591;48.314;11.562;2022-07-17T08:29:31;22.70;60.10
36586;DHT22;22591;48.314;11.562;2022-07-17T08:31:57;22.60;59.00
36586;DHT22;22591;48.314;11.562;2022-07-17T08:34:22;22.70;59.30
36586;DHT22;22591;48.314;11.562;2022-07-17T08:36:48;22.60;58.50
36586;DHT22;22591;48.314;11.562;2022-07-17T08:39:14;22.70;57.30
36586;DHT22;22591;48.314;11.562;2022-07-17T08:41:39;22.70;56.50
36586;DHT22;22591;48.314;11.562;2022-07-17T08:44:06;22.70;55.60
36586;DHT22;22591;48.314;11.562;2022-07-17T08:46:37;22.70;55.70
36586;DHT22;22591;48.314;11.562;2022-07-17T08:49:04;22.70;56.10
36586;DHT22;22591;48.314;11.562;2022-07-17T08:51:31;22.80;56.50
36586;DHT22;22591;48.314;11.562;2022-07-17T08:53:57;22.90;56.40
36586;DHT22;22591;48.314;11.562;2022-07-17T08:56:23;23.00;55.80
36586;DHT22;22591;48.314;11.562;2022-07-17T08:58:49;23.00;55.50
36586;DHT22;22591;48.314;11.562;2022-07-17T09:01:15;23.00;55.20
36586;DHT22;22591;48.314;11.562;2022-07-17T09:03:41;23.00;54.50
36586;DHT22;22591;48.314;11.562;2022-07-17T09:06:20;23.00;55.30
36586;DHT22;22591;48.314;11.562;2022-07-17T09:08:46;23.10;54.90
36586;DHT22;22591;48.314;11.562;2022-07-17T09:11:12;23.20;55.50
36586;DHT22;22591;48.314;11.562;2022-07-17T09:13:44;23.10;55.00
36586;DHT22;22591;48.314;11.562;2022-07-17T09:16:11;23.20;55.00
36586;DHT22;22591;48.314;11.562;2022-07-17T09:18:50;23.20;56.00
36586;DHT22;22591;48.314;11.562;2022-07-17T09:21:20;23.30;56.20
36586;DHT22;22591;48.314;11.562;2022-07-17T09:23:56;23.30;55.80
36586;DHT22;22591;48.314;11.562;2022-07-17T09:26:22;23.30;55.20
36586;DHT22;22591;48.314;11.562;2022-07-17T09:28:47;23.30;54.60
36586;DHT22;22591;48.314;11.562;2022-07-17T09:31:27;23.20;55.30
36586;DHT22;22591;48.314;11.562;2022-07-17T09:33:53;23.30;55.10
36586;DHT22;22591;48.314;11.562;2022-07-17T09:36:20;23.30;55.30
36586;DHT22;22591;48.314;11.562;2022-07-17T09:38:46;23.40;55.00
36586;DHT22;22591;48.314;11.562;2022-07-17T09:41:18;23.50;54.80
36586;DHT22;22591;48.314;11.562;2022-07-17T09:43:46;23.60;54.90
36586;DHT22;22591;48.314;11.562;2022-07-17T09:46:26;23.50;54.80
36586;DHT22;22591;48.314;11.562;2022-07-17T09:48:55;23.50;54.80
36586;DHT22;22591;48.314;11.562;2022-07-17T09:51:27;23.50;54.70
36586;DHT22;22591;48.314;11.562;2022-07-17T09:53:54;23.60;54.50
36586;DHT22;22591;48.314;11.562;2022-07-17T09:56:22;23.60;54.00
36586;DHT22;22591;48.314;11.562;2022-07-17T09:58:54;23.60;53.20
36586;DHT22;22591;48.314;11.562;2022-07-17T10:01:20;23.60;54.40
36586;DHT22;22591;48.314;11.562;2022-07-17T10:03:46;23.60;54.20
36586;DHT22;22591;48.314;11.562;2022-07-17T10:06:14;23.70;53.80
36586;DHT22;22591;48.314;11.562;2022-07-17T10:08:40;23.80;53.60
36586;DHT22;22591;48.314;11.562;2022-07-17T10:11:09;23.80;52.90
36586;DHT22;22591;48.314;11.562;2022-07-17T10:13:38;23.90;52.40
36586;DHT22;22591;48.314;11.562;2022-07-17T10:16:05;24.00;53.10
36586;DHT22;22591;48.314;11.562;2022-07-17T10:18:40;24.10;51.30
36586;DHT22;22591;48.314;11.562;2022-07-17T10:23:36;24.20;51.50
36586;DHT22;22591;48.314;11.562;2022-07-17T10:26:02;24.20;51.20
36586;DHT22;22591;48.314;11.562;2022-07-17T10:31:04;24.30;51.00
36586;DHT22;22591;48.314;11.562;2022-07-17T10:33:30;24.30;50.60
36586;DHT22;22591;48.314;11.562;2022-07-17T10:35:55;24.40;48.30
36586;DHT22;22591;48.314;11.562;2022-07-17T10:38:26;24.40;49.80
36586;DHT22;22591;48.314;11.562;2022-07-17T10:41:03;24.50;50.20
36586;DHT22;22591;48.314;11.562;2022-07-17T10:43:43;24.50;49.10
36586;DHT22;22591;48.314;11.562;2022-07-17T10:46:10;24.40;49.60
36586;DHT22;22591;48.314;11.562;2022-07-17T10:48:38;24.50;49.30
36586;DHT22;22591;48.314;11.562;2022-07-17T10:51:05;24.50;49.30
36586;DHT22;22591;48.314;11.562;2022-07-17T10:53:33;24.50;49.80
36586;DHT22;22591;48.314;11.562;2022-07-17T10:56:04;24.60;49.20
36586;DHT22;22591;48.314;11.562;2022-07-17T10:58:34;24.60;48.60
36586;DHT22;22591;48.314;11.562;2022-07-17T11:01:07;24.70;48.90
36586;DHT22;22591;48.314;11.562;2022-07-17T11:06:13;24.70;46.50
36586;DHT22;22591;48.314;11.562;2022-07-17T11:08:47;24.70;45.40
36586;DHT22;22591;48.314;11.562;2022-07-17T11:11:13;24.70;44.60
36586;DHT22;22591;48.314;11.562;2022-07-17T11:13:39;24.60;45.20
36586;DHT22;22591;48.314;11.562;2022-07-17T11:16:04;24.60;46.40
36586;DHT22;22591;48.314;11.562;2022-07-17T11:18:32;24.60;46.80
36586;DHT22;22591;48.314;11.562;2022-07-17T11:21:00;24.70;46.50
36586;DHT22;22591;48.314;11.562;2022-07-17T11:23:29;24.70;47.00
36586;DHT22;22591;48.314;11.562;2022-07-17T11:26:00;24.80;46.60
36586;DHT22;22591;48.314;11.562;2022-07-17T11:28:27;24.80;46.30
36586;DHT22;22591;48.314;11.562;2022-07-17T11:30:53;24.80;44.60
36586;DHT22;22591;48.314;11.562;2022-07-17T11:33:18;24.80;45.60
36586;DHT22;22591;48.314;11.562;2022-07-17T11:35:46;24.80;44.90
36586;DHT22;22591;48.314;11.562;2022-07-17T11:38:12;24.70;46.60
36586;DHT22;22591;48.314;11.562;2022-07-17T11:40:48;24.70;45.70
36586;DHT22;22591;48.314;11.562;2022-07-17T11:43:14;24.70;46.10
36586;DHT22;22591;48.314;11.562;2022-07-17T11:45:43;24.80;46.70
36586;DHT22;22591;48.314;11.562;2022-07-17T11:48:09;24.80;46.10
36586;DHT22;22591;48.314;11.562;2022-07-17T11:50:35;24.80;45.50
36586;DHT22;22591;48.314;11.562;2022-07-17T11:53:02;25.00;45.40
36586;DHT22;22591;48.314;11.562;2022-07-17T11:55:41;25.10;45.00
36586;DHT22;22591;48.314;11.562;2022-07-17T11:58:07;25.30;44.70
36586;DHT22;22591;48.314;11.562;2022-07-17T12:00:34;25.30;44.30
36586;DHT22;22591;48.314;11.562;2022-07-17T12:03:01;25.40;44.50
36586;DHT22;22591;48.314;11.562;2022-07-17T12:05:28;25.50;45.00
36586;DHT22;22591;48.314;11.562;2022-07-17T12:07:54;25.30;44.90
36586;DHT22;22591;48.314;11.562;2022-07-17T12:10:25;25.30;45.60
36586;DHT22;22591;48.314;11.562;2022-07-17T12:13:04;25.30;45.50
36586;DHT22;22591;48.314;11.562;2022-07-17T12:15:41;25.30;45.50
36586;DHT22;22591;48.314;11.562;2022-07-17T12:18:22;25.40;45.60
36586;DHT22;22591;48.314;11.562;2022-07-17T12:20:50;25.50;45.20
36586;DHT22;22591;48.314;11.562;2022-07-17T12:25:51;25.50;44.30
36586;DHT22;22591;48.314;11.562;2022-07-17T12:28:27;25.60;44.20
36586;DHT22;22591;48.314;11.562;2022-07-17T12:30:53;25.70;44.70
36586;DHT22;22591;48.314;11.562;2022-07-17T12:33:19;25.70;43.60
36586;DHT22;22591;48.314;11.562;2022-07-17T12:35:44;25.80;42.80
36586;DHT22;22591;48.314;11.562;2022-07-17T12:38:10;25.80;42.70
36586;DHT22;22591;48.314;11.562;2022-07-17T12:40:35;25.80;43.00
36586;DHT22;22591;48.314;11.562;2022-07-17T12:43:01;25.70;43.70
36586;DHT22;22591;48.314;11.562;2022-07-17T12:45:26;25.70;43.60
36586;DHT22;22591;48.314;11.562;2022-07-17T12:47:52;25.70;43.60
36586;DHT22;22591;48.314;11.562;2022-07-17T12:50:19;25.80;43.20
36586;DHT22;22591;48.314;11.562;2022-07-17T12:52:44;25.80;43.70
36586;DHT22;22591;48.314;11.562;2022-07-17T12:55:10;26.00;43.90
36586;DHT22;22591;48.314;11.562;2022-07-17T12:57:36;26.00;43.50
36586;DHT22;22591;48.314;11.562;2022-07-17T13:00:03;26.10;42.20
36586;DHT22;22591;48.314;11.562;2022-07-17T13:02:29;26.10;41.20
36586;DHT22;22591;48.314;11.562;2022-07-17T13:04:55;26.10;41.50
36586;DHT22;22591;48.314;11.562;2022-07-17T13:07:20;26.20;42.20
36586;DHT22;22591;48.314;11.562;2022-07-17T13:09:46;26.20;41.90
36586;DHT22;22591;48.314;11.562;2022-07-17T13:12:11;26.00;41.10
36586;DHT22;22591;48.314;11.562;2022-07-17T13:14:37;26.00;42.00
36586;DHT22;22591;48.314;11.562;2022-07-17T13:17:03;26.10;41.70
36586;DHT22;22591;48.314;11.562;2022-07-17T13:19:28;26.00;41.30
36586;DHT22;22591;48.314;11.562;2022-07-17T13:21:54;26.10;42.00
36586;DHT22;22591;48.314;11.562;2022-07-17T13:24:20;26.10;41.40
36586;DHT22;22591;48.314;11.562;2022-07-17T13:26:46;26.10;41.30
36586;DHT22;22591;48.314;11.562;2022-07-17T13:29:12;26.20;41.00
36586;DHT22;22591;48.314;11.562;2022-07-17T13:31:38;26.20;41.30
36586;DHT22;22591;48.314;11.562;2022-07-17T13:34:04;26.40;42.00
36586;DHT22;22591;48.314;11.562;2022-07-17T13:36:30;26.50;43.10
36586;DHT22;22591;48.314;11.562;2022-07-17T13:38:55;26.50;43.10
36586;DHT22;22591;48.314;11.562;2022-07-17T13:41:21;26.50;43.40
36586;DHT22;22591;48.314;11.562;2022-07-17T13:43:48;26.50;43.50
36586;DHT22;22591;48.314;11.562;2022-07-17T13:46:13;26.50;43.50
36586;DHT22;22591;48.314;11.562;2022-07-17T13:48:39;26.50;42.90
36586;DHT22;22591;48.314;11.562;2022-07-17T13:51:05;26.50;43.20
36586;DHT22;22591;48.314;11.562;2022-07-17T13:53:31;26.40;42.90
36586;DHT22;22591;48.314;11.562;2022-07-17T13:55:57;26.50;43.40
36586;DHT22;22591;48.314;11.562;2022-07-17T13:58:23;26.50;43.40
36586;DHT22;22591;48.314;11.562;2022-07-17T14:00:48;26.60;43.70
36586;DHT22;22591;48.314;11.562;2022-07-17T14:03:14;26.70;43.20
36586;DHT22;22591;48.314;11.562;2022-07-17T14:05:40;26.70;42.80
36586;DHT22;22591;48.314;11.562;2022-07-17T14:08:05;26.80;43.00
36586;DHT22;22591;48.314;11.562;2022-07-17T14:10:31;26.80;42.50
36586;DHT22;22591;48.314;11.562;2022-07-17T14:12:57;26.80;42.30
36586;DHT22;22591;48.314;11.562;2022-07-17T14:15:23;26.80;42.60
36586;DHT22;22591;48.314;11.562;2022-07-17T14:17:48;26.80;42.80
36586;DHT22;22591;48.314;11.562;2022-07-17T14:20:14;26.80;42.70
36586;DHT22;22591;48.314;11.562;2022-07-17T14:22:40;27.00;43.60
36586;DHT22;22591;48.314;11.562;2022-07-17T14:25:05;27.00;42.40
36586;DHT22;22591;48.314;11.562;2022-07-17T14:27:31;26.90;42.30
36586;DHT22;22591;48.314;11.562;2022-07-17T14:29:57;26.80;42.00
36586;DHT22;22591;48.314;11.562;2022-07-17T14:32:23;26.90;42.70
36586;DHT22;22591;48.314;11.562;2022-07-17T14:34:48;26.90;42.80
36586;DHT22;22591;48.314;11.562;2022-07-17T14:37:14;27.00;43.00
36586;DHT22;22591;48.314;11.562;2022-07-17T14:39:40;27.10;42.40
36586;DHT22;22591;48.314;11.562;2022-07-17T14:42:05;27.00;41.90
36586;DHT22;22591;48.314;11.562;2022-07-17T14:44:31;27.00;42.00
36586;DHT22;22591;48.314;11.562;2022-07-17T14:46:58;27.10;41.90
36586;DHT22;22591;48.314;11.562;2022-07-17T14:49:24;27.10;42.50
36586;DHT22;22591;48.314;11.562;2022-07-17T14:51:50;27.20;41.90
36586;DHT22;22591;48.314;11.562;2022-07-17T14:54:15;27.30;41.80
36586;DHT22;22591;48.314;11.562;2022-07-17T14:56:41;27.30;41.20
36586;DHT22;22591;48.314;11.562;2022-07-17T14:59:06;27.20;41.70
36586;DHT22;22591;48.314;11.562;2022-07-17T15:01:32;27.40;41.80
36586;DHT22;22591;48.314;11.562;2022-07-17T15:03:59;27.40;42.00
36586;DHT22;22591;48.314;11.562;2022-07-17T15:06:24;27.50;42.10
36586;DHT22;22591;48.314;11.562;2022-07-17T15:08:50;27.40;41.40
36586;DHT22;22591;48.314;11.562;2022-07-17T15:11:16;27.40;40.80
36586;DHT22;22591;48.314;11.562;2022-07-17T15:13:41;27.40;41.60
36586;DHT22;22591;48.314;11.562;2022-07-17T15:16:07;27.40;41.90
36586;DHT22;22591;48.314;11.562;2022-07-17T15:18:33;27.40;41.60
36586;DHT22;22591;48.314;11.562;2022-07-17T15:20:58;27.50;42.20